Mount Darwin, Zimbabwe
Current Conditions -  °F | °C
As of 3:00 PM on Saturday 25 Oct 2014 (Local Time) from FVHA Reporting Station
Thunderstorm Thunderstorm  
Wind Chill: 82°   Ceiling: 6000
Heat Index: 82°   Visibility: 6mi
Dew Point: 54°   Wind: 5mph
Humidity: 37%   Direction: NA
Pressure: 30.06"   Gusts: NA
Location:  16.77°S, 31.58°E
Report Text: FVHA 251300Z VRB04KT 9999 TS FEW050CB BKN060 28/12 Q1018 NOSIG
Loading
Personal Weather Stations






























Interactive Weather Map
Tropical Storm Tracking
New forecast layout! Learn more

10-Day Weather Forecast

Advertisements
Track Severe Weather on mobile